Date,TemperatureHighF,TemperatureAvgF,TemperatureLowF,DewpointHighF,DewpointAvgF,DewpointLowF,HumidityHigh,HumidityAvg,HumidityLow,PressureMaxIn,PressureMinIn,WindSpeedMaxMPH,WindSpeedAvgMPH,GustSpeedMaxMPH,PrecipitationSumIn
2014-1-1,0,0,0,0,0,0,0,0,100,28.97,28.91,8,3,8,0.00
2014-1-18,42,26,0,26,14,0,81,60,49,28.94,28.52,57,2,57,0.00
2014-1-19,68,42,17,30,14,-12,89,44,4,28.82,28.47,10,3,10,0.00
2014-1-20,49,33,4,28,17,-8,69,52,39,29.23,28.64,11,1,11,0.00
2014-1-21,25,11,-3,7,-11,-23,56,40,14,29.29,28.82,7,1,7,0.00
2014-1-22,29,18,-2,16,4,-18,66,54,44,29.38,28.85,9,2,9,0.00
2014-1-23,21,4,-5,-4,-15,-23,45,41,14,29.62,29.35,8,2,8,0.00
2014-1-26,54,33,6,29,11,-26,59,40,12,29.47,28.41,16,4,16,0.00
2014-1-27,23,6,-1,-7,-20,-35,38,31,14,29.29,29.09,7,2,7,0.00
2014-1-28,26,8,-9,-3,-28,-43,44,18,13,29.26,29.00,10,1,10,0.00
2014-1-29,52,12,-4,16,-23,-40,56,19,8,29.00,28.41,11,1,11,0.00
2014-1-30,40,32,18,19,10,2,57,40,29,28.88,28.23,13,2,13,0.00
2014-1-31,36,22,14,11,3,-2,65,44,30,28.97,28.76,6,2,57,0.00
2014-2-1,30,21,10,18,10,-3,80,64,46,29.09,28.67,8,1,8,0.00
2014-2-2,40,13,-5,18,-1,-16,61,54,39,29.17,29.00,6,1,6,0.00
2014-2-3,35,20,2,17,5,-8,69,54,43,29.06,28.94,6,1,6,0.00
2014-2-4,24,17,3,20,11,-3,85,77,55,29.17,29.00,8,2,8,0.00
2014-2-5,17,5,-6,7,-6,-22,76,61,43,29.44,29.17,10,2,10,0.00
2014-2-6,14,0,-11,-3,-16,-28,45,43,43,29.41,29.17,8,2,8,0.00
2014-2-7,26,11,-2,5,-6,-18,54,47,40,29.17,28.94,8,1,8,0.00
2014-2-8,33,20,11,17,8,-3,80,60,45,29.00,28.79,7,1,229,0.00
2014-2-9,19,12,5,13,1,-11,77,61,47,29.20,29.00,172,1,172,0.00
2014-2-10,24,6,-9,4,-11,-23,48,45,38,29.32,29.20,3,0,4,0.00
2014-2-11,27,13,-3,9,-2,-19,62,49,44,29.26,28.88,5,1,5,0.00
2014-2-12,38,24,14,22,15,4,86,68,51,28.91,28.61,6,1,6,0.04
2014-2-13,58,38,24,32,24,15,87,61,36,28.64,28.50,8,2,8,0.04
2014-2-14,37,24,15,20,12,3,80,60,41,28.88,28.44,8,2,8,0.04
2014-2-15,59,34,17,35,21,7,79,60,29,28.88,28.58,12,2,12,0.00
2014-2-16,40,30,24,27,23,19,83,75,56,28.97,28.64,10,2,10,0.04
2014-2-17,59,38,28,34,24,14,98,62,22,28.76,28.55,13,2,13,0.08
2014-2-18,70,47,31,30,18,-12,61,39,4,28.76,28.44,11,2,11,0.00
2014-2-19,58,39,21,32,24,15,89,58,29,28.76,28.38,6,1,6,0.00
2014-2-20,42,35,25,34,27,11,98,71,50,28.58,28.29,15,4,15,0.25
2014-2-21,55,34,21,31,20,11,84,58,36,28.67,28.55,10,2,10,0.00
2014-2-22,52,34,25,26,19,8,91,56,34,29.00,28.64,9,1,9,0.00
2014-2-23,42,27,19,13,7,0,54,42,29,29.17,28.97,6,1,6,0.00
2014-2-24,29,24,21,17,13,8,79,62,50,29.14,29.00,9,1,9,0.00
2014-2-25,22,14,7,17,3,-9,82,61,46,29.29,29.09,9,2,9,0.00
2014-2-26,41,19,-1,18,2,-16,57,46,38,29.29,28.70,13,2,13,0.00
2014-2-27,37,18,5,7,-10,-23,51,32,11,29.00,28.67,10,2,10,0.00
2014-2-28,51,27,12,22,10,-10,82,53,27,28.94,28.52,172,2,172,0.00
2014-3-1,19,10,0,11,0,-10,70,62,60,29.29,28.94,10,2,10,0.33
2014-3-2,15,2,-4,2,-11,-31,60,55,21,29.38,29.23,9,2,9,0.00
2014-3-3,32,11,-8,6,-13,-35,50,34,18,29.38,28.94,8,1,8,0.00
2014-3-4,50,26,8,23,8,-7,63,48,32,28.94,28.76,9,1,9,0.00
2014-3-5,52,29,20,26,15,11,77,57,34,29.12,28.88,6,2,6,0.00
2014-3-6,48,32,22,31,24,15,90,75,49,29.09,28.61,6,1,6,0.00
2014-3-7,47,35,26,37,27,0,98,74,51,29.00,28.55,8,2,8,0.00
2014-3-8,28,22,18,17,14,12,78,70,58,29.12,28.97,8,2,8,0.00
2014-3-9,66,58,32,30,23,-12,51,28,4,29.14,28.61,9,2,9,0.33
2014-3-10,92,60,37,40,25,-18,59,35,2,28.64,28.41,6,1,6,0.00
2014-3-11,54,43,33,36,32,28,97,67,49,28.91,28.29,15,2,215,0.00
2014-3-12,64,38,25,34,26,16,95,65,21,29.00,28.85,9,2,9,0.33
2014-3-13,79,50,26,35,10,-20,70,34,2,28.88,28.50,10,2,10,0.33
2014-3-14,69,50,30,30,12,-12,52,29,4,28.76,28.44,13,2,13,0.00
2014-3-15,76,41,29,33,18,-20,88,46,2,29.03,28.64,15,2,15,0.33
2014-3-16,63,37,23,27,9,-15,88,42,5,29.17,28.82,172,2,172,0.33
2014-3-17,72,42,23,28,17,-14,68,41,4,28.85,28.23,172,2,172,0.00
2014-3-18,46,40,37,27,24,22,60,53,47,28.29,28.23,5,1,5,0.00
2014-3-26,46,44,35,40,39,21,86,80,55,28.44,28.26,7,3,7,0.00
2014-3-27,54,41,33,52,39,28,98,92,78,28.67,28.14,15,2,15,0.09
2014-3-28,59,38,25,34,27,0,87,66,38,29.03,28.64,7,1,7,0.00
2014-3-29,78,44,21,36,26,4,94,56,8,29.09,28.82,8,1,8,0.00
2014-3-30,86,60,42,39,28,-16,58,36,2,28.85,28.41,13,2,13,0.00
2014-3-31,77,53,28,45,29,10,51,41,26,28.79,28.26,17,5,18,0.42
2014-4-1,54,36,23,27,17,11,62,46,33,28.91,28.76,11,2,11,0.00
2014-4-2,46,40,33,40,29,14,95,65,44,28.88,28.58,15,3,15,0.00
2014-4-3,42,39,33,40,38,33,98,98,91,28.61,28.50,6,2,6,0.16
2014-4-4,52,37,26,33,29,21,98,73,44,28.97,28.58,10,2,10,0.09
2014-4-5,75,47,24,38,26,-14,97,54,4,28.97,28.76,10,1,10,0.67
2014-4-6,79,56,46,46,35,30,62,46,31,28.79,28.64,8,1,8,0.67
2014-4-7,76,55,40,46,34,-20,85,53,2,28.76,28.58,8,1,8,0.00
2014-4-8,49,44,38,34,32,30,78,63,50,28.79,28.76,5,2,8,0.00
2014-4-13,48,37,30,47,36,0,98,97,32,28.82,28.41,19,4,19,1.57
2014-4-14,54,36,27,29,20,15,91,53,32,29.03,28.73,10,2,10,0.13
2014-4-15,69,45,21,31,24,1,86,47,10,29.00,28.61,7,1,7,2.37
2014-4-16,77,50,35,37,29,-10,71,47,5,28.94,28.50,16,3,16,0.00
2014-4-17,78,40,32,36,23,-20,73,59,2,29.17,28.91,6,2,6,2.37
2014-4-18,87,56,29,45,34,21,84,49,20,29.09,28.88,12,2,12,0.00
2014-4-19,94,68,51,55,45,39,70,45,26,28.91,28.76,7,2,8,0.00
2014-4-20,93,69,56,60,52,43,93,57,29,28.82,28.73,12,2,12,0.08
2014-4-21,87,68,56,60,31,-20,98,47,2,28.97,28.73,9,2,9,2.45
2014-4-22,91,62,39,41,30,-17,73,36,2,29.00,28.76,9,2,9,0.00
2014-4-23,59,53,48,52,44,33,91,71,41,28.79,28.44,13,3,13,0.25
2014-4-24,74,56,47,53,46,38,98,74,33,28.64,28.44,7,1,7,2.91
2014-4-25,89,62,37,49,38,-12,98,51,3,28.67,28.52,10,1,10,0.00
2014-4-26,97,68,46,59,49,40,86,54,28,28.61,28.32,12,2,12,0.00
2014-4-27,82,65,59,64,58,51,98,79,46,28.35,28.08,13,4,13,0.49
2014-4-28,78,60,51,60,49,40,98,71,38,28.23,28.05,10,2,10,0.00
2014-4-29,52,45,38,49,42,35,98,88,71,28.67,28.20,7,2,7,0.17
2014-4-30,48,44,38,41,37,31,93,78,53,28.76,28.64,8,3,9,3.57
2014-5-1,56,46,42,42,38,35,98,74,50,28.82,28.67,9,2,9,0.00
2014-5-2,78,55,34,42,36,31,93,54,21,28.82,28.55,11,2,11,0.00
2014-5-3,95,66,41,47,38,-9,80,42,2,28.79,28.67,6,1,6,0.00
2014-5-4,84,63,51,50,42,36,65,47,30,28.76,28.61,16,4,16,0.00
2014-5-11,90,66,56,73,62,41,98,89,54,28.64,28.26,115,4,115,2.78
2014-5-12,59,52,48,58,50,43,98,94,82,28.88,28.50,9,2,9,7.89
2014-5-13,48,48,48,44,43,42,86,84,81,28.91,28.82,6,2,6,0.00
2014-5-22,96,68,47,64,57,42,98,73,31,29.03,28.85,57,1,57,8.22
2014-5-23,96,70,52,61,54,48,98,63,29,29.03,28.88,8,1,8,0.00
2014-5-24,96,73,34,65,58,0,92,63,33,28.94,28.79,57,1,57,0.00
2014-5-25,101,75,66,77,68,64,98,81,38,28.85,28.67,172,1,172,0.25
2014-5-26,103,78,64,75,67,62,98,74,33,28.85,28.67,6,1,6,0.04
2014-5-27,106,80,65,69,64,57,93,64,27,28.82,28.70,9,1,9,0.00
2014-5-28,105,81,61,71,64,56,96,62,25,28.85,28.76,57,1,57,0.00
2014-5-29,106,81,62,71,65,60,96,64,29,28.88,28.76,115,1,115,8.47
2014-5-30,106,83,67,73,67,60,95,63,29,28.88,28.76,172,1,172,8.47
2014-5-31,106,81,68,72,66,61,94,64,32,28.88,28.70,6,1,6,0.00
2014-6-1,100,76,63,73,66,58,98,77,39,28.76,28.52,12,1,12,1.12
2014-6-2,95,74,60,68,62,56,98,71,30,28.79,28.61,7,1,7,0.00
2014-6-3,101,72,58,73,64,57,98,81,38,28.88,28.50,172,2,229,1.74
2014-6-4,100,74,61,72,64,57,98,76,33,28.70,28.52,9,1,9,0.04
2014-6-5,103,73,64,75,65,56,98,80,33,28.76,28.64,172,1,172,11.37
2014-6-6,104,78,63,73,66,60,98,70,31,28.79,28.64,57,1,57,0.00
2014-6-7,71,70,69,66,66,65,91,87,81,28.76,28.70,3,0,3,0.00
2014-6-23,75,67,63,63,62,60,92,83,59,28.79,28.76,4,0,4,17.61
2014-6-24,64,63,63,62,61,60,94,92,90,28.79,28.79,0,0,0,0.00
2014-6-27,76,72,63,71,70,62,95,91,86,28.79,28.52,2,1,2,1.99
2014-6-28,95,76,65,73,68,64,98,78,42,28.67,28.50,6,2,6,0.08
2014-6-29,104,79,64,80,71,63,98,81,40,28.73,28.55,4,0,4,0.08
2014-6-30,94,77,65,82,71,59,97,84,42,28.67,28.44,5,0,229,19.76
2014-7-1,86,71,62,63,56,50,92,61,37,28.85,28.61,10,2,10,19.76
2014-7-2,86,65,55,55,52,47,91,66,32,29.00,28.82,5,1,5,0.00
2014-7-3,103,73,50,62,56,49,97,62,25,29.03,28.97,6,0,6,19.76
2014-7-4,99,77,59,67,61,57,93,62,34,29.06,28.88,6,1,6,0.00
2014-7-5,102,79,65,81,71,62,98,80,46,28.94,28.70,6,1,6,0.50
2014-7-6,108,86,68,82,73,67,98,71,38,28.73,28.58,1,1,1,20.26
2014-7-7,103,80,67,75,68,64,96,74,32,28.70,28.58,1,1,1,20.39
2014-7-8,94,76,65,68,60,53,87,61,31,28.85,28.67,1,1,1,0.00
2014-7-9,96,74,58,67,62,57,97,71,32,28.91,28.82,1,1,1,0.00
2014-7-10,103,80,63,71,67,62,97,68,36,28.88,28.76,1,1,1,0.00
2014-7-11,104,80,70,79,72,66,91,78,41,28.85,28.76,3,1,3,0.00
2014-7-12,100,82,71,79,73,67,96,76,41,28.88,28.76,5,1,5,20.39
2014-7-13,103,80,67,72,68,63,98,70,36,28.91,28.76,6,1,6,0.00
2014-7-14,86,73,59,69,55,43,95,56,31,29.00,28.79,11,1,11,0.00
2014-7-15,93,70,56,56,52,48,83,57,28,29.00,28.88,8,1,8,0.00
2014-7-16,63,58,54,56,54,52,97,86,75,28.91,28.88,0,0,0,0.00
2014-7-17,102,72,52,64,57,50,97,66,23,28.91,28.82,5,0,5,0.00
2014-7-18,90,71,57,67,61,55,96,72,44,28.91,28.76,172,0,172,20.39
2014-7-19,95,76,58,71,64,57,95,70,41,28.85,28.70,8,1,8,0.00
2014-7-20,107,82,65,76,70,63,94,69,36,28.76,28.61,8,1,229,0.00
2014-7-21,110,88,71,84,76,70,95,71,38,28.70,28.64,8,1,229,0.00
2014-7-22,88,86,84,77,75,73,80,70,64,28.73,28.67,7,2,7,0.00
2014-7-26,107,94,83,82,77,74,77,60,38,28.73,28.64,6,1,6,0.04
2014-8-10,94,74,69,78,71,67,98,92,49,28.91,28.73,4,0,4,21.38
2014-8-11,92,75,65,69,60,50,98,65,31,29.00,28.88,7,1,7,0.04
2014-8-12,100,73,55,59,55,49,98,61,26,29.00,28.88,6,1,6,0.04
2014-8-13,106,76,53,64,58,52,98,62,22,29.00,28.88,57,0,57,0.04
2014-8-14,103,78,59,69,63,0,96,65,33,28.94,28.76,7,1,7,0.04
2014-8-15,78,72,68,71,67,63,96,85,70,28.79,28.64,10,1,10,0.04
2014-8-16,107,81,70,74,70,66,97,73,33,28.76,28.64,4,1,6,21.38
2014-8-17,111,82,67,75,70,65,97,72,32,28.82,28.70,115,1,115,0.04
2014-8-18,105,81,63,71,67,62,98,68,32,28.82,28.61,6,1,8,0.04
2014-8-19,112,84,67,71,67,61,96,64,23,28.67,28.58,4,0,4,0.04
2014-8-20,106,84,73,80,73,68,92,74,40,28.67,28.55,6,1,6,0.00
2014-8-21,105,85,71,77,73,69,96,70,38,28.70,28.58,57,1,57,21.59
2014-8-22,108,84,72,82,76,68,98,79,39,28.79,28.64,5,1,5,0.12
2014-8-23,110,81,69,81,74,68,98,82,36,28.79,28.61,115,1,115,1.29
2014-8-28,106,76,69,83,73,69,98,91,38,28.79,28.61,6,1,6,5.94
2014-8-29,84,72,68,78,70,66,98,93,68,28.67,28.58,10,0,10,1.29
2014-8-30,104,76,64,72,66,64,98,77,31,28.79,28.64,4,0,4,1.29
2014-8-31,102,74,67,80,70,66,98,87,48,28.70,28.41,10,1,10,1.29
2014-9-1,91,72,63,67,64,58,98,80,39,28.79,28.52,10,1,10,1.29
2014-9-2,101,77,57,65,60,57,98,60,30,28.85,28.70,6,1,6,27.98
2014-9-3,97,77,63,79,71,60,98,83,48,28.76,28.52,115,1,115,1.29
2014-9-4,101,83,71,76,71,55,95,71,40,28.82,28.52,115,1,115,27.98
2014-9-5,73,65,60,61,57,55,97,75,57,28.97,28.79,7,1,7,0.08
2014-9-9,68,68,60,68,67,59,98,98,96,28.94,28.44,6,1,6,1.21
2014-9-10,68,63,55,67,60,52,98,91,76,28.94,28.44,7,2,7,0.08
2014-9-11,56,54,53,54,51,50,93,89,86,29.06,28.88,6,1,6,0.00
2014-9-12,56,47,45,51,46,45,98,98,83,29.29,29.09,4,1,5,0.50
2014-10-1,88,69,53,75,64,50,98,86,50,29.26,28.52,172,0,172,3.56
2014-10-2,70,59,50,64,56,49,98,91,57,28.70,28.55,6,1,217,0.50
2014-10-3,60,50,38,50,31,20,98,50,35,28.97,28.67,12,3,12,0.50
2014-10-4,64,44,34,36,27,21,80,53,27,28.91,28.58,8,2,8,0.00
2014-10-5,75,53,37,51,42,34,94,69,36,28.61,28.52,9,1,9,0.00
2014-10-6,75,58,47,51,45,42,92,65,35,28.58,28.47,8,1,8,0.00
2014-10-7,82,63,52,50,46,39,90,57,29,28.85,28.47,9,2,9,0.00
2014-10-8,81,60,43,48,42,34,86,54,30,28.97,28.82,5,0,5,0.00
2014-10-9,72,61,52,53,47,32,83,59,46,29.00,28.85,9,3,9,0.00
2014-10-10,61,51,45,39,35,31,65,55,42,29.09,28.97,6,1,6,0.00
2014-10-11,72,55,47,45,37,31,86,52,33,29.06,28.79,5,0,5,0.00
2014-10-12,68,56,49,53,44,32,98,65,48,28.79,28.52,11,1,11,0.25
2014-10-13,56,54,34,54,51,33,98,90,67,28.61,28.52,8,1,8,0.34
2014-10-14,72,58,49,45,40,35,76,54,33,28.85,28.58,9,2,9,0.00
2014-10-15,60,60,60,35,35,35,40,40,40,28.88,28.85,3,0,3,0.00
2014-10-19,67,67,67,44,44,44,43,43,43,28.88,28.76,5,0,5,0.00
2014-10-20,75,67,54,50,43,41,85,42,34,28.91,28.79,4,0,5,0.00
2014-10-21,74,67,47,52,43,40,98,42,37,28.94,28.82,6,0,6,0.00
2014-10-22,78,67,59,63,50,40,98,58,42,28.91,28.76,5,1,6,0.58
2014-10-23,69,61,57,65,57,52,98,86,58,28.91,28.82,5,0,5,0.00
2014-10-24,78,64,54,65,57,52,98,79,51,28.85,28.70,57,0,57,0.00
2014-10-25,73,66,53,58,51,44,98,61,39,28.94,28.79,6,1,6,0.00
2014-10-26,80,68,61,60,50,44,71,54,45,28.85,28.35,8,2,8,0.00
2014-10-27,72,66,63,56,51,46,79,59,42,28.79,28.35,8,1,8,0.00
2014-10-28,66,61,49,47,37,30,50,42,36,29.00,28.76,14,2,14,0.00
2014-10-29,59,56,39,37,32,32,79,41,36,29.06,28.82,4,0,4,0.00
2014-10-30,55,55,55,32,32,32,41,41,41,29.23,28.76,10,2,10,0.00
2014-10-31,55,55,55,32,32,32,41,41,41,29.38,29.17,8,2,8,0.00